Time;durP1;ratioP1;P1;durP2;ratioP2;P2;SDS_P1;SDS_P2;PMS_P1;PMS_P2;Temp;Humidity;BMP_temperature;BMP_pressure;BME280_temperature;BME280_humidity;BME280_pressure;Samples;Min_cycle;Max_cycle;Signal;HPM_P1;HPM_P2
2021/08/15 00:00:38;;;;;;;10.23;6.70;;;20.20;58.90;;;;;;5051814;28;20025;-62
2021/08/15 00:03:04;;;;;;;8.73;6.00;;;20.10;58.90;;;;;;5053093;28;20025;-64
2021/08/15 00:05:30;;;;;;;8.48;5.55;;;20.10;59.00;;;;;;5053123;28;20036;-62
2021/08/15 00:07:56;;;;;;;8.75;5.63;;;20.10;59.00;;;;;;5053360;28;20104;-62
2021/08/15 00:10:22;;;;;;;8.57;5.55;;;20.10;58.90;;;;;;5052858;28;20028;-62
2021/08/15 00:12:49;;;;;;;9.18;6.22;;;20.20;58.90;;;;;;5053067;28;20056;-62
2021/08/15 00:15:15;;;;;;;7.47;5.40;;;20.20;58.80;;;;;;5052706;28;20035;-62
2021/08/15 00:17:42;;;;;;;8.70;5.30;;;20.20;58.70;;;;;;5052998;28;20048;-63
2021/08/15 00:20:11;;;;;;;9.35;5.82;;;20.20;58.50;;;;;;5052952;28;20032;-62
2021/08/15 00:22:39;;;;;;;9.98;5.80;;;20.20;58.70;;;;;;5051447;28;20028;-63
2021/08/15 00:25:06;;;;;;;8.68;5.80;;;20.20;58.80;;;;;;5052611;28;20471;-62
2021/08/15 00:27:32;;;;;;;8.23;4.97;;;20.10;58.70;;;;;;5052623;28;20025;-63
2021/08/15 00:29:58;;;;;;;8.65;5.30;;;20.10;58.80;;;;;;5052594;28;20502;-63
2021/08/15 00:32:23;;;;;;;7.72;4.70;;;20.10;58.70;;;;;;5052510;28;20040;-63
2021/08/15 00:34:49;;;;;;;7.57;5.05;;;20.10;58.70;;;;;;5052585;28;20021;-63
2021/08/15 00:37:15;;;;;;;7.57;4.90;;;20.10;58.70;;;;;;5052404;28;20029;-62
2021/08/15 00:39:40;;;;;;;7.63;4.60;;;20.10;58.60;;;;;;5052417;28;20107;-62
2021/08/15 00:42:06;;;;;;;7.07;4.43;;;20.10;58.50;;;;;;5052424;28;20096;-61
2021/08/15 00:44:32;;;;;;;6.53;4.20;;;20.10;58.50;;;;;;5052436;28;20402;-62
2021/08/15 00:46:58;;;;;;;6.57;3.78;;;20.10;58.50;;;;;;5052524;28;20021;-62
2021/08/15 00:49:23;;;;;;;7.35;3.72;;;20.00;58.30;;;;;;5052305;28;20055;-62
2021/08/15 00:51:49;;;;;;;6.38;3.55;;;20.00;58.20;;;;;;5052525;28;20025;-62
2021/08/15 00:54:16;;;;;;;6.65;4.15;;;20.00;58.30;;;;;;5052003;28;20021;-62
2021/08/15 00:56:42;;;;;;;6.35;3.63;;;20.00;58.30;;;;;;5052106;28;20386;-62
2021/08/15 00:59:08;;;;;;;6.35;3.85;;;20.10;58.80;;;;;;5051983;28;20357;-62
2021/08/15 01:01:34;;;;;;;6.15;3.60;;;20.00;58.20;;;;;;5052108;28;20487;-63
2021/08/15 01:04:04;;;;;;;6.68;4.10;;;20.00;58.20;;;;;;5051878;28;20108;-62
2021/08/15 01:06:34;;;;;;;6.10;3.55;;;20.10;58.20;;;;;;5052037;28;20033;-62
2021/08/15 01:09:03;;;;;;;6.97;3.90;;;20.10;58.10;;;;;;5051959;28;20063;-63
2021/08/15 01:11:31;;;;;;;6.28;3.50;;;20.10;58.00;;;;;;5051784;28;20034;-61
2021/08/15 01:13:57;;;;;;;5.97;3.88;;;20.10;57.70;;;;;;5051799;28;20032;-62
2021/08/15 01:16:22;;;;;;;7.10;4.13;;;20.10;57.70;;;;;;5051846;28;20385;-62
2021/08/15 01:18:48;;;;;;;7.30;4.43;;;20.10;57.90;;;;;;5052014;28;20059;-63
2021/08/15 01:21:13;;;;;;;7.88;4.47;;;20.10;57.90;;;;;;5051278;28;20029;-62
2021/08/15 01:23:43;;;;;;;7.40;3.97;;;20.10;57.90;;;;;;5051570;28;20025;-63
2021/08/15 01:26:10;;;;;;;6.65;3.70;;;20.10;57.90;;;;;;5051850;28;20037;-62
2021/08/15 01:28:36;;;;;;;6.13;3.63;;;20.10;57.90;;;;;;5052015;28;20037;-62
2021/08/15 01:31:02;;;;;;;6.32;3.67;;;20.10;57.90;;;;;;5051172;28;20021;-62
2021/08/15 01:33:29;;;;;;;6.25;3.35;;;20.10;57.80;;;;;;5051370;28;20013;-62
2021/08/15 01:35:56;;;;;;;5.53;2.90;;;20.10;57.70;;;;;;5051407;28;20025;-63
2021/08/15 01:38:24;;;;;;;5.22;2.90;;;20.10;58.20;;;;;;5051503;28;20017;-63
2021/08/15 01:40:51;;;;;;;5.13;2.92;;;20.10;57.70;;;;;;5051481;28;20028;-62
2021/08/15 01:43:17;;;;;;;6.88;3.28;;;20.00;57.60;;;;;;5051636;28;20415;-63
2021/08/15 01:45:42;;;;;;;6.30;3.50;;;20.00;57.70;;;;;;5051358;28;20035;-63
2021/08/15 01:48:08;;;;;;;5.47;3.10;;;20.00;57.80;;;;;;5051485;28;20035;-63
2021/08/15 01:50:35;;;;;;;6.38;3.53;;;19.90;57.90;;;;;;5051115;28;20057;-63
2021/08/15 01:53:00;;;;;;;6.22;3.65;;;19.90;58.00;;;;;;5051232;28;20048;-63
2021/08/15 01:55:26;;;;;;;6.53;3.65;;;19.90;58.10;;;;;;5051372;28;20471;-63
2021/08/15 01:57:52;;;;;;;5.60;3.42;;;19.90;58.30;;;;;;5051178;28;20384;-62
2021/08/15 02:00:18;;;;;;;7.05;3.80;;;19.80;58.30;;;;;;5051289;28;20033;-62
2021/08/15 02:02:44;;;;;;;6.60;4.18;;;19.80;58.60;;;;;;5051222;28;20025;-63
2021/08/15 02:05:18;;;;;;;7.13;4.72;;;19.70;58.70;;;;;;5049950;28;20376;-62
2021/08/15 02:07:44;;;;;;;7.18;4.40;;;19.70;58.90;;;;;;5051111;28;20052;-62
2021/08/15 02:10:10;;;;;;;7.85;4.35;;;19.70;59.10;;;;;;5051262;28;20069;-63
2021/08/15 02:12:35;;;;;;;7.70;4.70;;;19.60;59.20;;;;;;5050951;28;20020;-63
2021/08/15 02:15:01;;;;;;;7.35;4.63;;;19.50;59.40;;;;;;5049679;28;20032;-62
2021/08/15 02:17:27;;;;;;;9.93;6.25;;;19.50;59.60;;;;;;5050968;28;20108;-63
2021/08/15 02:19:52;;;;;;;9.27;6.38;;;19.40;59.80;;;;;;5050996;28;20035;-63
2021/08/15 02:22:18;;;;;;;11.35;7.43;;;19.30;60.00;;;;;;5051005;28;20029;-61
2021/08/15 02:24:43;;;;;;;12.02;7.28;;;19.20;60.20;;;;;;5051085;28;20384;-62
2021/08/15 02:27:09;;;;;;;12.05;8.38;;;19.20;60.70;;;;;;5050961;28;20482;-62
2021/08/15 02:29:35;;;;;;;13.07;8.45;;;19.10;60.60;;;;;;5050963;28;20472;-62
2021/08/15 02:32:00;;;;;;;13.07;9.07;;;19.10;60.60;;;;;;5051173;28;20021;-62
2021/08/15 02:34:27;;;;;;;12.23;9.25;;;19.00;60.80;;;;;;5054708;28;20476;-62
2021/08/15 02:36:53;;;;;;;11.77;8.43;;;19.00;60.90;;;;;;5054890;28;20021;-62
2021/08/15 02:39:19;;;;;;;10.50;7.43;;;18.90;61.00;;;;;;5054959;28;20392;-62
2021/08/15 02:41:44;;;;;;;10.35;7.20;;;18.90;61.10;;;;;;5055120;28;20353;-62
2021/08/15 02:44:10;;;;;;;9.85;6.90;;;18.80;61.20;;;;;;5054463;28;20033;-62
2021/08/15 02:46:36;;;;;;;9.98;6.75;;;18.80;61.30;;;;;;5054545;28;20361;-63
2021/08/15 02:49:01;;;;;;;8.60;6.00;;;18.70;61.30;;;;;;5054426;28;20090;-63
2021/08/15 02:51:27;;;;;;;10.10;6.35;;;18.70;61.50;;;;;;5054763;28;20036;-63
2021/08/15 02:53:54;;;;;;;11.32;7.43;;;18.70;61.60;;;;;;5054401;28;20021;-63
2021/08/15 02:56:19;;;;;;;13.02;8.30;;;18.60;61.70;;;;;;5053265;28;20422;-63
2021/08/15 02:58:45;;;;;;;13.07;9.88;;;18.60;62.20;;;;;;5054380;28;20096;-63
2021/08/15 03:01:11;;;;;;;16.67;11.90;;;18.60;62.60;;;;;;5054220;28;20116;-62
2021/08/15 03:03:37;;;;;;;17.27;12.48;;;18.60;63.10;;;;;;5054350;28;20104;-63
2021/08/15 03:06:02;;;;;;;17.55;12.98;;;18.60;63.40;;;;;;5054244;28;20492;-63
2021/08/15 03:08:28;;;;;;;16.05;12.90;;;18.50;63.60;;;;;;5054337;28;20041;-63
2021/08/15 03:10:54;;;;;;;14.80;11.00;;;18.40;63.80;;;;;;5052711;28;20389;-63
2021/08/15 03:13:20;;;;;;;14.18;10.45;;;18.40;63.70;;;;;;5054468;28;20070;-62
2021/08/15 03:15:45;;;;;;;13.00;10.18;;;18.30;63.50;;;;;;5053992;28;20430;-62
2021/08/15 03:18:16;;;;;;;12.23;9.23;;;18.30;63.60;;;;;;5054065;28;20437;-62
2021/08/15 03:20:42;;;;;;;11.40;8.93;;;18.30;63.60;;;;;;5054099;28;20365;-62
2021/08/15 03:23:08;;;;;;;10.73;7.82;;;18.30;63.50;;;;;;5053747;28;20033;-63
2021/08/15 03:25:36;;;;;;;11.35;8.13;;;18.30;63.40;;;;;;5053962;28;20029;-63
2021/08/15 03:28:04;;;;;;;11.88;8.70;;;18.40;63.60;;;;;;5053865;28;20227;-63
2021/08/15 03:30:29;;;;;;;12.82;8.95;;;18.50;63.80;;;;;;5052331;28;20061;-63
2021/08/15 03:32:55;;;;;;;13.43;8.70;;;18.50;63.70;;;;;;5053513;28;20106;-63
2021/08/15 03:35:21;;;;;;;12.63;8.77;;;18.60;63.50;;;;;;5053890;28;20017;-62
2021/08/15 03:37:47;;;;;;;13.65;9.38;;;18.70;63.40;;;;;;5053666;28;20067;-61
2021/08/15 03:40:13;;;;;;;14.63;10.63;;;18.70;63.40;;;;;;5053797;28;20421;-62
2021/08/15 03:42:38;;;;;;;14.95;10.60;;;18.80;63.40;;;;;;5053524;28;20047;-62
2021/08/15 03:45:06;;;;;;;14.68;10.60;;;18.90;63.30;;;;;;5053205;28;20433;-63
2021/08/15 03:47:31;;;;;;;13.55;9.82;;;18.90;63.30;;;;;;5053299;28;20021;-63
2021/08/15 03:49:59;;;;;;;12.55;9.25;;;19.00;63.10;;;;;;5053092;28;20095;-63
2021/08/15 03:52:24;;;;;;;12.85;8.93;;;19.10;63.20;;;;;;5053423;28;20452;-62
2021/08/15 03:54:50;;;;;;;11.38;7.97;;;19.10;63.20;;;;;;5053297;28;20079;-62
2021/08/15 03:57:17;;;;;;;10.75;7.28;;;19.20;63.20;;;;;;5053166;28;20104;-62
2021/08/15 03:59:43;;;;;;;11.93;8.00;;;19.20;63.20;;;;;;5053041;28;20438;-63
2021/08/15 04:02:09;;;;;;;11.18;7.80;;;19.20;63.10;;;;;;5053000;28;20468;-62
2021/08/15 04:04:35;;;;;;;11.60;8.30;;;19.30;63.10;;;;;;5052942;28;20032;-62
2021/08/15 04:07:00;;;;;;;11.77;8.65;;;19.30;62.90;;;;;;5052935;28;20029;-63
2021/08/15 04:09:26;;;;;;;11.50;8.45;;;19.40;63.00;;;;;;5053055;28;20466;-62
2021/08/15 04:11:52;;;;;;;10.65;7.93;;;19.40;63.10;;;;;;5052877;28;20484;-62
2021/08/15 04:14:18;;;;;;;13.98;9.82;;;19.40;63.00;;;;;;5052801;28;20036;-62
2021/08/15 04:16:43;;;;;;;14.57;10.40;;;19.50;63.10;;;;;;5052869;28;20043;-61
2021/08/15 04:19:09;;;;;;;12.77;9.40;;;19.50;63.20;;;;;;5052784;28;20388;-63
2021/08/15 04:21:35;;;;;;;13.90;10.00;;;19.60;63.40;;;;;;5052846;28;20031;-63
2021/08/15 04:24:00;;;;;;;17.80;12.05;;;19.70;63.50;;;;;;5052722;28;20029;-62
2021/08/15 04:26:26;;;;;;;17.45;11.77;;;19.80;63.60;;;;;;5052726;28;20472;-62
2021/08/15 04:28:52;;;;;;;17.42;10.85;;;19.80;63.50;;;;;;5052662;28;20029;-62
2021/08/15 04:31:18;;;;;;;15.75;11.45;;;19.90;63.60;;;;;;5052716;28;20037;-63
2021/08/15 04:33:43;;;;;;;16.75;11.55;;;20.00;63.60;;;;;;5052744;28;20021;-63
2021/08/15 04:36:09;;;;;;;16.15;10.90;;;20.10;63.60;;;;;;5052423;28;20028;-62
2021/08/15 04:38:35;;;;;;;16.05;11.20;;;20.20;63.50;;;;;;5052523;28;20024;-62
2021/08/15 04:41:01;;;;;;;15.23;11.10;;;20.30;63.40;;;;;;5052361;28;20070;-63
2021/08/15 04:43:26;;;;;;;15.70;11.40;;;20.40;63.60;;;;;;5052512;28;20033;-63
2021/08/15 04:45:52;;;;;;;13.65;10.15;;;20.50;63.60;;;;;;5052457;28;20029;-63
2021/08/15 04:48:18;;;;;;;14.48;10.25;;;20.60;63.40;;;;;;5052298;28;20491;-62
2021/08/15 04:50:44;;;;;;;14.05;10.70;;;20.70;63.60;;;;;;5051884;28;20037;-62
2021/08/15 04:53:10;;;;;;;13.02;8.85;;;20.80;63.70;;;;;;5052304;28;20040;-62
2021/08/15 04:55:36;;;;;;;11.43;8.70;;;20.90;63.50;;;;;;5051726;28;20381;-62
2021/08/15 04:58:03;;;;;;;12.82;8.50;;;21.00;63.40;;;;;;5052002;28;20507;-62
2021/08/15 05:00:29;;;;;;;12.07;8.50;;;21.10;63.30;;;;;;5052222;28;20412;-63
2021/08/15 05:02:55;;;;;;;11.65;8.65;;;21.20;63.30;;;;;;5050621;28;20040;-63
2021/08/15 05:05:21;;;;;;;11.48;8.80;;;21.30;63.30;;;;;;5051983;28;20033;-63
2021/08/15 05:07:47;;;;;;;11.43;9.10;;;21.40;63.50;;;;;;5051827;28;20028;-62
2021/08/15 05:10:12;;;;;;;13.60;9.98;;;21.50;63.70;;;;;;5051771;28;20384;-63
2021/08/15 05:12:38;;;;;;;10.63;8.10;;;21.60;63.80;;;;;;5050508;28;20033;-63
2021/08/15 05:15:04;;;;;;;10.90;8.18;;;21.60;63.50;;;;;;5051919;28;20037;-63
2021/08/15 05:17:30;;;;;;;10.57;7.97;;;21.70;63.30;;;;;;5052212;28;20032;-62
2021/08/15 05:19:56;;;;;;;10.98;7.80;;;21.80;63.00;;;;;;5051550;28;20384;-62
2021/08/15 05:22:21;;;;;;;9.10;6.57;;;21.90;62.70;;;;;;5051878;28;20044;-63
2021/08/15 05:24:47;;;;;;;8.00;5.50;;;22.00;61.90;;;;;;5051853;28;20025;-63
2021/08/15 05:27:13;;;;;;;8.30;5.45;;;22.10;61.50;;;;;;5051411;28;20031;-63
2021/08/15 05:29:38;;;;;;;7.63;5.30;;;22.30;61.20;;;;;;5051440;28;20025;-62
2021/08/15 05:32:04;;;;;;;8.07;5.47;;;22.40;60.70;;;;;;5051526;28;20545;-63
2021/08/15 05:34:30;;;;;;;7.93;4.93;;;22.50;60.40;;;;;;5051533;28;20025;-63
2021/08/15 05:36:56;;;;;;;8.93;6.43;;;22.60;60.20;;;;;;5051308;28;20080;-62
2021/08/15 05:39:21;;;;;;;8.88;5.80;;;22.70;60.10;;;;;;5051500;28;20429;-63
2021/08/15 05:41:47;;;;;;;9.65;6.80;;;22.80;60.00;;;;;;5051310;28;20103;-63
2021/08/15 05:44:12;;;;;;;8.80;6.43;;;22.90;59.90;;;;;;5049806;28;20035;-63
2021/08/15 05:46:38;;;;;;;10.50;7.22;;;22.90;59.60;;;;;;5051508;28;20035;-63
2021/08/15 05:49:05;;;;;;;9.60;6.68;;;23.00;59.40;;;;;;5050984;28;20041;-64
2021/08/15 05:51:31;;;;;;;9.48;6.30;;;23.10;59.30;;;;;;5051384;28;20029;-63
2021/08/15 05:53:57;;;;;;;8.75;6.28;;;23.20;59.20;;;;;;5050090;28;20025;-64
2021/08/15 05:56:23;;;;;;;8.40;5.70;;;23.30;58.70;;;;;;5051213;28;20053;-64
2021/08/15 05:58:48;;;;;;;8.35;5.07;;;23.40;58.30;;;;;;5051593;28;20037;-62
2021/08/15 06:01:14;;;;;;;7.57;4.90;;;23.50;58.10;;;;;;5051671;28;20083;-62
2021/08/15 06:03:40;;;;;;;7.50;4.57;;;23.60;57.70;;;;;;5049895;28;20078;-63
2021/08/15 06:06:05;;;;;;;8.30;5.18;;;23.70;57.20;;;;;;5051744;28;20032;-62
2021/08/15 06:08:31;;;;;;;7.50;4.82;;;23.80;56.60;;;;;;5055307;28;20029;-63
2021/08/15 06:10:57;;;;;;;6.78;4.43;;;23.90;56.30;;;;;;5054932;28;20029;-61
2021/08/15 06:13:23;;;;;;;7.70;5.10;;;24.00;56.10;;;;;;5055167;28;20021;-62
2021/08/15 06:15:48;;;;;;;8.45;4.97;;;24.00;55.60;;;;;;5055083;28;20025;-63
2021/08/15 06:18:16;;;;;;;6.85;4.57;;;24.10;55.50;;;;;;5055181;28;20025;-62
2021/08/15 06:20:42;;;;;;;7.00;3.90;;;24.30;54.60;;;;;;5055068;28;20029;-64
2021/08/15 06:23:08;;;;;;;7.05;4.18;;;24.30;54.60;;;;;;5054837;28;20470;-63
2021/08/15 06:25:34;;;;;;;6.80;4.20;;;24.40;54.40;;;;;;5054735;28;20032;-62
2021/08/15 06:27:59;;;;;;;6.28;3.97;;;24.50;54.60;;;;;;5055123;28;20075;-63
2021/08/15 06:30:25;;;;;;;7.55;4.60;;;24.60;54.70;;;;;;5054816;28;20350;-62
2021/08/15 06:32:53;;;;;;;6.50;3.97;;;24.80;54.70;;;;;;5054722;28;20044;-61
2021/08/15 06:35:21;;;;;;;6.78;4.05;;;24.90;54.50;;;;;;5054883;28;20383;-62
2021/08/15 06:37:48;;;;;;;5.82;3.72;;;25.00;54.40;;;;;;5054759;28;20480;-62
2021/08/15 06:40:14;;;;;;;9.02;4.80;;;25.10;54.60;;;;;;5054821;28;20063;-63
2021/08/15 06:42:40;;;;;;;7.68;5.35;;;25.20;55.00;;;;;;5054539;28;20024;-63
2021/08/15 06:45:06;;;;;;;8.40;5.90;;;25.30;55.50;;;;;;5054606;28;20025;-63
2021/08/15 06:47:32;;;;;;;8.50;6.55;;;25.40;56.00;;;;;;5054619;28;20017;-63
2021/08/15 06:49:58;;;;;;;8.57;5.65;;;25.50;56.50;;;;;;5054601;28;20059;-63
2021/08/15 06:52:23;;;;;;;7.10;4.80;;;25.50;56.30;;;;;;5054379;28;20024;-63
2021/08/15 06:54:50;;;;;;;7.15;5.00;;;25.60;56.20;;;;;;5054672;28;20025;-64
2021/08/15 06:57:15;;;;;;;9.02;5.43;;;25.70;56.00;;;;;;5054821;28;20029;-62
2021/08/15 06:59:41;;;;;;;9.23;6.78;;;25.80;56.20;;;;;;5054864;28;20335;-62
2021/08/15 07:02:06;;;;;;;9.82;7.40;;;25.90;56.60;;;;;;5054276;28;20049;-62
2021/08/15 07:04:32;;;;;;;10.50;7.97;;;26.00;56.90;;;;;;5054323;28;20075;-63
2021/08/15 07:06:58;;;;;;;11.25;7.78;;;26.00;57.20;;;;;;5053986;28;20039;-63
2021/08/15 07:09:23;;;;;;;10.32;7.47;;;26.10;57.40;;;;;;5054248;28;20599;-63
2021/08/15 07:11:49;;;;;;;9.85;7.95;;;26.10;57.30;;;;;;5054346;28;20368;-64
2021/08/15 07:14:15;;;;;;;12.07;9.25;;;26.20;57.20;;;;;;5054048;28;20029;-64
2021/08/15 07:16:40;;;;;;;12.88;10.73;;;26.30;57.20;;;;;;5054037;28;20536;-62
2021/08/15 07:19:06;;;;;;;13.32;10.77;;;26.40;57.00;;;;;;5053305;28;20021;-63
2021/08/15 07:21:32;;;;;;;12.73;11.02;;;26.50;56.90;;;;;;5054248;28;20029;-63
2021/08/15 07:23:58;;;;;;;15.13;12.50;;;26.60;56.70;;;;;;5053852;28;20049;-63
2021/08/15 07:26:24;;;;;;;14.02;12.45;;;26.70;56.40;;;;;;5053956;28;20436;-64
2021/08/15 07:28:49;;;;;;;11.27;9.35;;;26.80;55.80;;;;;;5053668;28;20487;-63
2021/08/15 07:31:15;;;;;;;9.32;6.20;;;26.90;54.10;;;;;;5053628;28;20085;-63
2021/08/15 07:33:41;;;;;;;8.52;5.40;;;27.00;51.50;;;;;;5053666;28;20082;-63
2021/08/15 07:36:07;;;;;;;8.27;5.53;;;27.00;51.10;;;;;;5053859;28;20082;-65
2021/08/15 07:38:33;;;;;;;7.68;5.35;;;27.10;50.80;;;;;;5054325;28;20036;-63
2021/08/15 07:40:59;;;;;;;7.00;4.28;;;27.20;50.30;;;;;;5052697;28;20021;-63
2021/08/15 07:43:26;;;;;;;6.60;5.00;;;27.40;50.80;;;;;;5053437;28;20021;-63
2021/08/15 07:45:52;;;;;;;9.07;6.57;;;27.50;50.90;;;;;;5053545;28;20059;-63
2021/08/15 07:48:18;;;;;;;9.77;7.68;;;27.70;50.50;;;;;;5053534;28;20032;-64
2021/08/15 07:50:43;;;;;;;7.20;5.07;;;27.90;50.40;;;;;;5052648;28;20374;-63
2021/08/15 07:53:16;;;;;;;7.50;4.82;;;28.10;49.80;;;;;;5053132;28;20021;-64
2021/08/15 07:55:42;;;;;;;9.02;5.57;;;28.40;49.60;;;;;;5053734;28;20455;-63
2021/08/15 07:58:07;;;;;;;9.75;6.20;;;28.60;49.80;;;;;;5053395;28;20047;-63
2021/08/15 08:00:33;;;;;;;10.55;8.07;;;28.80;49.30;;;;;;5053190;28;20107;-63
2021/08/15 08:02:59;;;;;;;10.07;8.13;;;29.10;49.60;;;;;;5052993;28;20082;-63
2021/08/15 08:05:24;;;;;;;10.35;7.90;;;29.40;49.80;;;;;;5053042;28;20178;-63
2021/08/15 08:07:50;;;;;;;10.05;8.05;;;29.60;49.90;;;;;;5053130;28;20465;-63
2021/08/15 08:10:16;;;;;;;9.02;7.13;;;29.80;49.60;;;;;;5052912;28;20427;-63
2021/08/15 08:12:45;;;;;;;9.60;7.00;;;30.10;49.60;;;;;;5053003;28;20021;-62
2021/08/15 08:15:11;;;;;;;9.07;7.40;;;30.30;49.40;;;;;;5052850;28;20025;-64
2021/08/15 08:17:36;;;;;;;8.43;6.60;;;30.60;48.20;;;;;;5052895;28;20388;-64
2021/08/15 08:20:03;;;;;;;7.80;5.75;;;30.90;48.10;;;;;;5052751;28;20035;-63
2021/08/15 08:22:29;;;;;;;8.32;6.20;;;31.10;48.20;;;;;;5052425;28;20108;-64
2021/08/15 08:24:54;;;;;;;7.95;5.55;;;31.50;47.70;;;;;;5052703;28;20104;-64
2021/08/15 08:27:20;;;;;;;8.80;5.05;;;31.80;47.60;;;;;;5052753;28;20029;-63
2021/08/15 08:29:47;;;;;;;6.68;4.97;;;32.10;47.20;;;;;;5051794;28;20052;-64
2021/08/15 08:32:12;;;;;;;7.13;4.68;;;32.40;46.90;;;;;;5051109;28;20354;-64
2021/08/15 08:34:38;;;;;;;7.53;5.38;;;32.80;46.30;;;;;;5052388;28;20036;-64
2021/08/15 08:37:04;;;;;;;6.68;4.60;;;33.10;45.50;;;;;;5052450;28;20372;-63
2021/08/15 08:39:30;;;;;;;7.00;5.10;;;33.50;45.00;;;;;;5052421;28;20033;-63
2021/08/15 08:42:00;;;;;;;6.65;4.75;;;33.60;44.60;;;;;;5052454;28;20035;-63
2021/08/15 08:44:30;;;;;;;8.07;5.10;;;33.80;44.60;;;;;;5052356;28;20017;-63
2021/08/15 08:47:05;;;;;;;6.85;5.30;;;34.10;43.90;;;;;;5052206;28;20029;-64
2021/08/15 08:49:32;;;;;;;7.88;5.20;;;34.40;42.40;;;;;;5052186;28;20097;-63
2021/08/15 08:51:58;;;;;;;6.68;4.78;;;34.70;43.30;;;;;;5052401;28;20083;-65
2021/08/15 08:54:26;;;;;;;7.70;5.03;;;34.90;43.20;;;;;;5052200;28;20025;-64
2021/08/15 08:56:51;;;;;;;6.68;4.00;;;35.10;43.10;;;;;;5052260;28;20032;-64
2021/08/15 08:59:17;;;;;;;6.65;4.22;;;35.30;43.00;;;;;;5052039;28;20033;-63
2021/08/15 09:01:43;;;;;;;6.80;4.70;;;35.50;42.60;;;;;;5052079;28;20021;-64
2021/08/15 09:04:12;;;;;;;6.65;4.68;;;35.70;42.20;;;;;;5051995;28;20051;-63
2021/08/15 09:06:39;;;;;;;6.05;4.20;;;36.00;41.90;;;;;;5052073;28;20108;-64
2021/08/15 09:09:11;;;;;;;7.53;4.60;;;36.30;41.70;;;;;;5050429;28;20468;-63
2021/08/15 09:11:37;;;;;;;8.05;4.75;;;36.60;40.50;;;;;;5051848;28;20055;-64
2021/08/15 09:14:09;;;;;;;6.88;4.32;;;36.80;40.40;;;;;;5052009;28;20025;-63
2021/08/15 09:16:53;;;;;;;7.00;4.65;;;37.00;40.10;;;;;;5050631;28;20420;-63
2021/08/15 09:19:37;;;;;;;6.80;4.78;;;37.30;39.40;;;;;;5051770;28;20104;-63
2021/08/15 09:22:23;;;;;;;7.82;4.82;;;37.40;37.70;;;;;;5051742;28;20028;-63
2021/08/15 09:25:02;;;;;;;7.00;4.82;;;37.60;38.30;;;;;;5051823;28;20048;-64
2021/08/15 09:27:56;;;;;;;6.28;4.47;;;37.70;38.70;;;;;;5051817;28;20435;-64
2021/08/15 09:30:26;;;;;;;6.90;4.30;;;37.90;38.60;;;;;;5051472;28;20048;-64
2021/08/15 09:33:12;;;;;;;6.57;4.10;;;38.00;38.60;;;;;;5051395;28;20013;-62
2021/08/15 09:35:40;;;;;;;6.07;3.90;;;38.20;38.70;;;;;;5051110;28;20106;-63
2021/08/15 09:38:17;;;;;;;6.55;4.07;;;38.40;38.30;;;;;;5051578;28;20024;-63
2021/08/15 09:40:52;;;;;;;6.07;4.28;;;38.60;37.40;;;;;;5051208;28;20043;-63
2021/08/15 09:43:28;;;;;;;6.25;4.03;;;38.70;38.00;;;;;;5051390;28;20027;-63
2021/08/15 09:45:58;;;;;;;6.80;4.22;;;38.90;37.30;;;;;;5051610;28;20087;-63
2021/08/15 09:48:31;;;;;;;7.18;4.20;;;39.10;37.30;;;;;;5051645;28;20033;-63
2021/08/15 09:51:23;;;;;;;7.03;4.18;;;39.10;37.10;;;;;;5051042;28;20053;-64
2021/08/15 09:53:50;;;;;;;5.43;3.50;;;39.30;35.80;;;;;;5050060;28;20045;-63
2021/08/15 09:56:29;;;;;;;5.93;3.85;;;39.40;37.20;;;;;;5051467;28;20044;-63
2021/08/15 09:59:15;;;;;;;6.38;4.32;;;39.70;36.30;;;;;;5051465;28;20087;-64
2021/08/15 10:01:55;;;;;;;6.18;3.92;;;39.70;35.70;;;;;;5051536;28;20029;-64
2021/08/15 10:04:23;;;;;;;6.27;4.00;;;39.90;35.90;;;;;;5051181;28;20025;-64
2021/08/15 10:06:51;;;;;;;6.53;3.83;;;39.90;35.80;;;;;;5051326;28;20266;-64
2021/08/15 10:09:18;;;;;;;5.85;3.70;;;40.00;35.80;;;;;;5051080;28;20021;-64
2021/08/15 10:11:45;;;;;;;5.50;3.58;;;40.10;35.80;;;;;;5051053;28;20052;-64
2021/08/15 10:14:12;;;;;;;5.43;3.35;;;40.30;35.70;;;;;;5051125;28;20029;-64
2021/08/15 10:16:43;;;;;;;5.68;3.60;;;40.50;35.60;;;;;;5051010;28;20021;-64
2021/08/15 10:19:12;;;;;;;4.80;3.20;;;40.60;35.10;;;;;;5051035;28;20047;-63
2021/08/15 10:21:44;;;;;;;5.20;3.33;;;40.70;35.10;;;;;;5051232;28;20040;-64
2021/08/15 10:24:12;;;;;;;5.22;3.60;;;40.90;34.90;;;;;;5051068;28;20021;-64
2021/08/15 10:26:43;;;;;;;5.53;3.65;;;40.90;34.70;;;;;;5051182;28;20380;-64
2021/08/15 10:29:38;;;;;;;5.78;3.50;;;41.10;34.60;;;;;;5050692;28;20048;-64
2021/08/15 10:32:23;;;;;;;6.68;4.35;;;41.20;33.90;;;;;;5046117;28;20112;-64
2021/08/15 10:34:51;;;;;;;5.70;4.20;;;41.30;33.30;;;;;;5050931;28;20039;-64
2021/08/15 10:37:23;;;;;;;5.55;3.90;;;41.40;34.00;;;;;;5050906;28;20130;-64
2021/08/15 10:39:49;;;;;;;5.07;3.40;;;41.70;33.80;;;;;;5050874;28;20033;-64
2021/08/15 10:42:37;;;;;;;5.88;3.40;;;41.80;33.80;;;;;;5050597;28;20143;-64
2021/08/15 10:45:13;;;;;;;5.97;3.35;;;41.90;33.00;;;;;;5050785;28;20021;-64
2021/08/15 10:47:39;;;;;;;5.28;3.50;;;42.00;33.30;;;;;;5050908;28;20033;-64
2021/08/15 10:50:07;;;;;;;5.55;3.08;;;42.10;33.30;;;;;;5050338;28;20076;-64
2021/08/15 10:52:42;;;;;;;5.65;3.10;;;42.20;33.30;;;;;;5050674;28;20029;-64
2021/08/15 10:55:16;;;;;;;4.63;2.90;;;42.40;33.10;;;;;;5054406;28;20060;-64
2021/08/15 10:57:54;;;;;;;5.88;2.85;;;42.50;32.80;;;;;;5054640;28;20527;-64
2021/08/15 11:00:31;;;;;;;5.00;2.70;;;42.80;32.30;;;;;;5054321;28;20112;-64
2021/08/15 11:02:58;;;;;;;5.30;3.10;;;42.80;32.30;;;;;;5054363;28;20138;-64
2021/08/15 11:05:37;;;;;;;5.50;2.75;;;42.80;32.30;;;;;;5054584;28;20029;-64
2021/08/15 11:08:04;;;;;;;5.07;3.00;;;42.90;31.90;;;;;;5054436;28;20443;-64
2021/08/15 11:11:06;;;;;;;4.70;2.60;;;42.90;32.20;;;;;;5054171;28;20033;-64
2021/08/15 11:13:32;;;;;;;4.00;2.35;;;43.00;31.60;;;;;;5052435;28;20037;-63
2021/08/15 11:16:25;;;;;;;5.15;2.35;;;43.30;32.00;;;;;;5054024;28;20021;-63
2021/08/15 11:19:13;;;;;;;4.72;2.85;;;43.50;31.30;;;;;;5054196;28;20479;-63
2021/08/15 11:22:16;;;;;;;5.50;3.30;;;43.60;30.70;;;;;;5048510;28;20040;-64
2021/08/15 11:24:45;;;;;;;5.45;3.75;;;43.80;30.10;;;;;;5053977;28;20025;-63
2021/08/15 11:27:13;;;;;;;5.55;3.72;;;43.80;31.30;;;;;;5053962;28;20468;-64
2021/08/15 11:29:40;;;;;;;5.65;3.85;;;43.90;31.20;;;;;;5053885;28;20032;-64
2021/08/15 11:32:13;;;;;;;5.47;3.30;;;44.10;30.80;;;;;;5053532;28;20021;-63
2021/08/15 11:34:58;;;;;;;5.43;3.00;;;44.20;30.50;;;;;;5053865;28;20475;-64
2021/08/15 11:37:30;;;;;;;5.47;3.08;;;44.20;30.00;;;;;;5053809;28;20025;-63
2021/08/15 11:39:57;;;;;;;5.55;3.33;;;44.30;30.40;;;;;;5053649;28;20013;-65
2021/08/15 11:42:25;;;;;;;5.20;2.80;;;44.40;30.40;;;;;;5053595;28;20115;-62
2021/08/15 11:45:00;;;;;;;4.70;3.20;;;44.60;30.50;;;;;;5053794;28;20025;-64
2021/08/15 11:47:36;;;;;;;5.40;3.60;;;44.70;30.50;;;;;;5053567;28;20024;-64
2021/08/15 11:50:32;;;;;;;5.03;2.83;;;44.80;30.30;;;;;;5053366;28;20049;-64
2021/08/15 11:52:57;;;;;;;4.20;2.70;;;45.00;30.00;;;;;;5048851;28;20075;-64
2021/08/15 11:55:27;;;;;;;4.88;2.67;;;44.90;30.30;;;;;;5053530;28;20056;-64
2021/08/15 11:57:57;;;;;;;;;;;45.10;30.20;;;;;;5054207;28;20431;-64
2021/08/15 12:00:37;;;;;;;5.28;2.70;;;45.00;29.60;;;;;;5053155;28;19958;-64
2021/08/15 12:03:05;;;;;;;4.70;2.70;;;45.00;30.20;;;;;;5053102;28;20029;-64
2021/08/15 12:05:32;;;;;;;4.57;2.70;;;45.20;30.20;;;;;;5052978;28;20021;-65
2021/08/15 12:08:06;;;;;;;4.72;3.20;;;45.40;30.10;;;;;;5053223;28;20388;-65
2021/08/15 12:10:37;;;;;;;4.97;2.75;;;45.60;29.90;;;;;;5053185;28;20491;-65
2021/08/15 12:13:16;;;;;;;5.60;3.10;;;45.70;29.90;;;;;;5053200;28;20045;-64
2021/08/15 12:15:46;;;;;;;5.80;3.58;;;45.70;29.80;;;;;;5052874;28;20460;-64
2021/08/15 12:18:31;;;;;;;5.60;3.33;;;45.80;29.90;;;;;;5053312;28;20562;-64
2021/08/15 12:20:59;;;;;;;4.93;2.95;;;46.00;29.60;;;;;;5052887;28;20021;-64
2021/08/15 12:23:25;;;;;;;5.88;3.72;;;46.10;29.90;;;;;;5052685;28;20017;-64
2021/08/15 12:26:00;;;;;;;5.50;3.63;;;46.40;29.80;;;;;;5052630;28;20021;-63
2021/08/15 12:28:30;;;;;;;5.60;3.30;;;46.50;29.20;;;;;;5052727;28;20047;-63
2021/08/15 12:30:56;;;;;;;5.25;3.38;;;46.70;29.60;;;;;;5052311;28;20480;-63
2021/08/15 12:33:33;;;;;;;5.28;3.28;;;46.80;29.70;;;;;;5052592;28;20021;-64
2021/08/15 12:36:19;;;;;;;5.30;3.25;;;46.90;29.60;;;;;;5052615;28;20052;-63
2021/08/15 12:38:45;;;;;;;4.80;3.15;;;46.90;28.80;;;;;;5052438;28;20490;-64
2021/08/15 12:41:46;;;;;;;4.53;2.90;;;47.00;29.40;;;;;;5051113;28;20079;-63
2021/08/15 12:44:14;;;;;;;4.80;2.90;;;47.20;29.20;;;;;;5049533;28;20041;-64
2021/08/15 12:46:39;;;;;;;4.85;2.80;;;47.20;29.30;;;;;;5052213;28;20152;-63
2021/08/15 12:49:45;;;;;;;4.47;2.95;;;47.40;29.20;;;;;;5052542;28;20108;-63